Time;durP1;ratioP1;P1;durP2;ratioP2;P2;SDS_P1;SDS_P2;PMS_P1;PMS_P2;Temp;Humidity;BMP_temperature;BMP_pressure;BME280_temperature;BME280_humidity;BME280_pressure;Samples;Min_cycle;Max_cycle;Signal;HPM_P1;HPM_P2
2023/01/12 00:01:55;;;;;;;6.53;1.13;;;4.30;99.90;;;3.60;100.00;97594.50;5027406;28;20029;-38
2023/01/12 00:04:20;;;;;;;6.80;1.30;;;4.30;99.90;;;3.61;100.00;97598.84;5030022;28;20516;-38
2023/01/12 00:06:46;;;;;;;4.90;0.90;;;4.30;99.90;;;3.60;100.00;97597.09;5021726;28;20036;-38
2023/01/12 00:09:12;;;;;;;6.90;1.38;;;4.40;99.90;;;3.58;100.00;97602.31;5032676;28;20206;-38
2023/01/12 00:11:38;;;;;;;2.47;0.85;;;4.30;99.90;;;3.59;100.00;97609.28;5029416;28;20028;-38
2023/01/12 00:14:07;;;;;;;3.05;1.10;;;4.30;99.90;;;3.61;100.00;97614.50;5033294;28;20087;-38
2023/01/12 00:16:36;;;;;;;4.45;1.30;;;4.40;99.90;;;3.64;100.00;97606.63;5028412;28;20032;-38
2023/01/12 00:19:16;;;;;;;7.90;1.60;;;4.40;99.90;;;3.65;100.00;97610.13;5015858;28;20110;-38
2023/01/12 00:24:35;;;;;;;6.65;1.27;;;4.40;99.90;;;3.70;100.00;97596.16;5027709;28;20045;-38
2023/01/12 00:27:06;;;;;;;8.98;1.40;;;4.40;99.90;;;3.63;100.00;97579.69;5023689;28;20072;-38
2023/01/12 00:29:32;;;;;;;4.45;1.33;;;4.50;99.90;;;3.80;100.00;97599.56;5028227;28;20075;-38
2023/01/12 00:31:59;;;;;;;7.07;1.13;;;4.50;99.90;;;3.80;100.00;97589.13;5025065;28;20067;-38
2023/01/12 00:34:25;;;;;;;8.52;1.40;;;4.60;99.90;;;4.08;100.00;97602.00;5029556;28;20470;-38
2023/01/12 00:36:52;;;;;;;10.35;1.42;;;4.70;99.90;;;4.12;100.00;97595.88;5029566;28;20021;-38
2023/01/12 00:39:18;;;;;;;5.85;1.20;;;4.80;99.90;;;4.24;100.00;97603.59;5033243;28;20531;-38
2023/01/12 00:47:14;;;;;;;4.80;1.42;;;5.10;99.90;;;4.36;100.00;97600.00;5033750;28;20043;-38
2023/01/12 00:49:41;;;;;;;4.68;1.35;;;5.10;99.90;;;4.38;100.00;97595.66;5034089;28;20052;-38
2023/01/12 00:52:11;;;;;;;4.78;1.27;;;5.10;99.90;;;4.42;100.00;97592.13;5028071;28;20033;-38
2023/01/12 00:54:37;;;;;;;6.20;1.15;;;5.10;99.90;;;4.48;100.00;97591.19;5016255;28;20123;-38
2023/01/12 00:57:03;;;;;;;6.00;1.48;;;5.20;99.90;;;4.63;100.00;97579.72;5030432;28;20421;-38
2023/01/12 00:59:29;;;;;;;9.25;2.40;;;5.30;99.90;;;4.68;100.00;97573.56;5030706;28;21090;-38
2023/01/12 01:01:55;;;;;;;3.53;1.10;;;5.30;99.90;;;4.66;100.00;97572.72;5026534;28;20035;-38
2023/01/12 01:04:21;;;;;;;6.25;1.27;;;5.40;99.90;;;4.61;100.00;97573.66;5032735;28;20032;-38
2023/01/12 01:06:47;;;;;;;5.78;1.20;;;5.40;99.90;;;4.70;100.00;97577.03;5030014;28;20045;-38
2023/01/12 01:09:13;;;;;;;3.72;1.38;;;5.30;99.90;;;4.73;100.00;97578.75;5032577;28;20032;-38
2023/01/12 01:11:39;;;;;;;3.83;1.13;;;5.40;99.90;;;4.82;100.00;97578.63;5030695;28;20033;-38
2023/01/12 01:14:05;;;;;;;3.60;1.20;;;5.50;99.90;;;4.84;100.00;97583.84;5027826;28;20029;-38
2023/01/12 01:16:31;;;;;;;3.33;1.20;;;5.60;99.90;;;4.84;100.00;97566.41;5029645;28;20082;-38
2023/01/12 01:18:58;;;;;;;6.43;1.40;;;5.60;99.90;;;4.99;100.00;97575.84;5033157;28;20582;-38
2023/01/12 01:21:25;;;;;;;2.60;0.98;;;5.70;99.90;;;4.98;100.00;97572.34;5032132;28;20377;-38
2023/01/12 01:23:51;;;;;;;9.32;1.33;;;5.60;99.90;;;4.87;100.00;97573.38;5028539;28;20031;-38
2023/01/12 01:26:20;;;;;;;7.90;1.30;;;5.60;99.90;;;4.81;100.00;97592.59;5031799;28;20039;-38
2023/01/12 01:28:46;;;;;;;5.72;1.20;;;5.50;99.90;;;4.81;100.00;97592.59;5030781;28;20033;-38
2023/01/12 01:31:16;;;;;;;8.43;1.30;;;5.50;99.90;;;4.82;100.00;97588.22;5027290;28;20044;-39
2023/01/12 01:33:42;;;;;;;6.65;1.20;;;5.50;99.90;;;4.89;100.00;97595.97;5029114;28;20057;-38
2023/01/12 01:36:09;;;;;;;4.68;1.23;;;5.60;99.90;;;4.98;100.00;97585.41;5008921;28;20114;-38
2023/01/12 01:38:35;;;;;;;3.85;1.00;;;5.70;99.90;;;5.00;100.00;97590.63;5012141;28;20020;-38
2023/01/12 01:41:01;;;;;;;4.70;1.08;;;5.70;99.90;;;5.07;100.00;97586.22;5027375;28;20526;-38
2023/01/12 01:43:31;;;;;;;9.45;1.60;;;5.80;99.90;;;5.15;100.00;97593.06;5025688;28;20029;-38
2023/01/12 01:46:07;;;;;;;6.20;1.23;;;5.80;99.90;;;5.16;100.00;97592.19;5006202;28;20139;-38
2023/01/12 01:48:38;;;;;;;7.53;1.30;;;5.80;99.90;;;5.20;100.00;97597.38;5011827;28;20287;-38
2023/01/12 01:51:11;;;;;;;6.80;1.27;;;5.90;99.90;;;5.21;100.00;97604.34;5005886;28;20503;-38
2023/01/12 01:53:41;;;;;;;7.50;1.15;;;5.90;99.90;;;5.27;100.00;97593.78;5027950;28;20033;-38
2023/01/12 01:56:24;;;;;;;3.75;1.00;;;5.90;99.90;;;5.21;100.00;97604.34;5033649;28;20032;-38
2023/01/12 01:58:58;;;;;;;3.60;0.98;;;5.90;99.90;;;5.11;100.00;97583.50;5032045;28;20035;-38
2023/01/12 02:01:24;;;;;;;5.93;1.38;;;6.00;99.90;;;5.26;100.00;97602.53;5031306;28;20089;-38
2023/01/12 02:03:52;;;;;;;4.47;1.42;;;6.00;99.90;;;5.24;100.00;97599.94;5012150;28;20393;-38
2023/01/12 02:06:19;;;;;;;4.93;1.48;;;6.00;99.90;;;5.35;100.00;97598.03;5025370;28;20063;-38
2023/01/12 02:08:57;;;;;;;7.10;1.40;;;6.10;99.90;;;5.38;100.00;97602.38;5029717;28;20064;-38
2023/01/12 02:16:19;;;;;;;6.60;1.33;;;6.10;99.90;;;5.39;100.00;97601.50;5033681;28;20037;-39
2023/01/12 02:17:07;;;;;;;6.38;1.30;;;6.20;99.90;;;5.39;100.00;97588.41;5018277;28;20117;-38
2023/01/12 02:20:11;;;;;;;8.13;1.13;;;6.10;99.90;;;5.29;100.00;97578.94;5030860;28;20048;-38
2023/01/12 02:22:58;;;;;;;4.05;1.05;;;6.00;99.90;;;5.22;100.00;97567.69;5012328;28;20033;-38
2023/01/12 02:26:15;;;;;;;6.50;1.42;;;5.90;99.90;;;5.16;100.00;97559.94;5023455;28;20032;-38
2023/01/12 02:29:08;;;;;;;4.00;1.20;;;5.90;99.90;;;5.14;100.00;97561.72;5026649;28;20478;-38
2023/01/12 02:31:40;;;;;;;6.35;1.52;;;5.90;99.90;;;5.19;100.00;97559.03;5027805;28;20048;-38
2023/01/12 02:34:23;;;;;;;;;;;5.90;99.90;;;5.12;100.00;97545.19;5028894;28;20210;-38
2023/01/12 02:36:55;;;;;;;;;;;5.80;99.90;;;5.11;100.00;97548.66;5031340;28;19921;-38
2023/01/12 02:39:58;;;;;;;5.82;1.10;;;5.80;99.90;;;5.07;100.00;97547.84;5060249;22;20380;-50
2023/01/12 02:42:58;;;;;;;7.75;1.23;;;5.80;99.90;;;5.14;100.00;97538.19;5041018;28;21952;-50
2023/01/12 02:45:31;;;;;;;4.22;1.30;;;5.90;99.90;;;5.19;100.00;97535.50;5048819;28;21063;-48
2023/01/12 02:48:17;;;;;;;5.68;1.30;;;5.90;99.90;;;5.23;100.00;97539.81;5053143;28;20044;-50
2023/01/12 02:51:00;;;;;;;7.65;1.50;;;5.90;99.90;;;5.22;100.00;97531.09;5046082;28;20080;-46
2023/01/12 02:53:51;;;;;;;5.65;1.27;;;5.90;99.90;;;5.20;100.00;97530.25;5045944;28;20894;-46
2023/01/12 02:56:23;;;;;;;6.95;1.48;;;5.90;99.90;;;5.18;100.00;97518.09;5045517;28;20038;-50
2023/01/12 02:58:54;;;;;;;9.18;1.60;;;5.80;99.90;;;5.09;100.00;97509.47;5049756;28;20028;-46
2023/01/12 03:01:22;;;;;;;8.65;1.73;;;5.80;99.90;;;5.05;100.00;97520.00;5046609;28;20024;-47
2023/01/12 03:03:49;;;;;;;9.18;1.20;;;5.70;99.90;;;4.96;100.00;97521.84;5045218;28;20332;-46
2023/01/12 03:06:17;;;;;;;3.85;1.10;;;5.70;99.90;;;4.90;100.00;97500.13;5051394;28;20039;-47
2023/01/12 03:08:45;;;;;;;4.60;1.20;;;5.60;99.90;;;4.87;100.00;97502.81;5045097;28;20054;-46
2023/01/12 03:11:17;;;;;;;4.65;1.02;;;5.60;99.90;;;4.89;100.00;97501.03;5051091;28;20041;-47
2023/01/12 03:13:47;;;;;;;;;;;5.60;99.90;;;4.87;100.00;97506.28;5041198;28;20037;-49
2023/01/12 03:16:18;;;;;;;6.53;1.13;;;5.60;99.90;;;4.92;100.00;97520.16;5035676;28;19917;-48
2023/01/12 03:19:01;;;;;;;5.10;1.15;;;5.60;99.90;;;5.02;100.00;97522.66;5059276;28;20226;-49
2023/01/12 03:21:31;;;;;;;;;;;5.70;99.90;;;5.01;100.00;97518.31;5042665;28;20507;-49
2023/01/12 03:24:14;;;;;;;8.13;1.60;;;5.70;99.90;;;5.04;100.00;97519.13;5044323;28;19927;-49
2023/01/12 03:26:47;;;;;;;6.15;1.27;;;5.80;99.90;;;5.02;100.00;97513.06;5044655;28;20090;-48
2023/01/12 03:29:55;;;;;;;7.20;1.40;;;5.70;99.90;;;4.93;100.00;97515.78;5045979;28;20993;-48
2023/01/12 03:32:22;;;;;;;5.22;1.58;;;5.60;99.90;;;4.82;100.00;97512.47;5007664;28;20040;-47
2023/01/12 03:34:48;;;;;;;5.97;1.30;;;5.60;99.90;;;4.76;100.00;97501.19;5040855;28;20029;-49
2023/01/12 03:37:43;;;;;;;7.13;1.73;;;5.50;99.90;;;4.80;100.00;97506.38;5039792;28;20154;-50
2023/01/12 03:40:13;;;;;;;4.45;1.50;;;5.50;99.90;;;4.75;100.00;97509.03;5043022;28;20059;-49
2023/01/12 03:42:57;;;;;;;6.13;1.33;;;5.40;99.90;;;4.70;100.00;97508.22;5041657;28;20127;-50
2023/01/12 03:45:41;;;;;;;8.13;1.83;;;5.40;99.90;;;4.69;100.00;97514.34;5039960;28;20047;-50
2023/01/12 03:48:20;;;;;;;7.72;1.48;;;5.40;99.90;;;4.72;100.00;97519.53;5042386;28;20033;-48
2023/01/12 03:50:59;;;;;;;8.60;1.40;;;5.40;99.90;;;4.74;100.00;97516.03;5038956;28;20038;-50
2023/01/12 03:53:25;;;;;;;6.88;1.50;;;5.40;99.90;;;4.71;100.00;97515.19;5042394;28;20033;-49
2023/01/12 03:55:56;;;;;;;6.65;1.30;;;5.40;99.90;;;4.77;100.00;97507.28;5042451;28;20677;-47
2023/01/12 03:58:23;;;;;;;12.32;2.15;;;5.50;99.90;;;4.76;100.00;97514.25;5045423;28;20044;-50
2023/01/12 04:00:49;;;;;;;6.03;1.52;;;5.50;99.90;;;4.83;100.00;97511.56;5031635;28;20025;-49
2023/01/12 04:03:16;;;;;;;6.55;1.50;;;5.50;99.90;;;4.89;100.00;97508.88;5042416;28;20036;-46
2023/01/12 04:05:43;;;;;;;7.57;1.48;;;5.60;99.90;;;4.90;100.00;97510.59;5042024;28;20057;-49
2023/01/12 04:08:14;;;;;;;3.60;1.30;;;5.60;99.90;;;4.95;100.00;97508.78;5043119;28;20041;-46
2023/01/12 04:10:40;;;;;;;8.77;1.45;;;5.60;99.90;;;4.97;100.00;97509.63;5043495;28;20074;-49
2023/01/12 04:13:06;;;;;;;8.88;1.40;;;5.70;99.90;;;5.04;100.00;97510.44;5039795;28;20040;-46
2023/01/12 04:15:36;;;;;;;5.03;1.30;;;5.80;99.90;;;5.06;100.00;97501.69;5035326;28;20078;-50
2023/01/12 04:18:03;;;;;;;3.83;1.15;;;5.80;99.90;;;5.07;100.00;97498.19;5037623;28;20137;-50
2023/01/12 04:20:29;;;;;;;5.53;1.35;;;5.80;99.90;;;4.94;100.00;97480.94;5044498;28;20024;-50
2023/01/12 04:22:54;;;;;;;5.20;1.30;;;5.80;99.90;;;5.12;100.00;97492.91;5038838;28;20120;-49
2023/01/12 04:25:22;;;;;;;5.45;1.27;;;5.80;99.90;;;5.14;100.00;97494.59;5037367;28;20033;-50
2023/01/12 04:27:52;;;;;;;9.43;1.45;;;5.90;99.90;;;5.17;100.00;97488.47;5038824;28;20111;-48
2023/01/12 04:30:22;;;;;;;7.43;1.40;;;5.90;99.90;;;5.19;100.00;97496.28;5039867;28;20036;-48
2023/01/12 04:32:48;;;;;;;11.20;1.70;;;5.90;99.90;;;5.26;100.00;97484.88;5042497;28;20182;-48
2023/01/12 04:35:15;;;;;;;9.32;1.98;;;5.90;99.90;;;5.31;100.00;97483.91;5043009;28;20409;-50
2023/01/12 04:37:42;;;;;;;6.80;1.60;;;6.00;99.90;;;5.34;100.00;97472.53;5042128;28;20527;-49
2023/01/12 04:40:11;;;;;;;7.25;1.35;;;6.00;99.90;;;5.34;100.00;97457.69;5038623;28;20100;-48
2023/01/12 04:45:22;;;;;;;6.93;1.42;;;6.10;99.90;;;5.38;100.00;97465.50;5040039;28;20042;-50
2023/01/12 04:47:47;;;;;;;4.53;1.50;;;6.10;99.90;;;5.38;100.00;97466.34;5043596;28;20029;-50
2023/01/12 04:50:14;;;;;;;7.32;2.10;;;6.10;99.90;;;5.40;100.00;97453.25;5045008;28;20032;-47
2023/01/12 04:52:39;;;;;;;5.57;1.30;;;6.10;99.90;;;5.45;100.00;97452.31;5038127;28;21574;-47
2023/01/12 04:55:06;;;;;;;11.10;1.63;;;6.10;99.90;;;5.40;100.00;97441.06;5040941;28;20530;-48
2023/01/12 04:57:32;;;;;;;5.10;1.50;;;6.10;99.90;;;5.42;100.00;97435.78;5045023;28;20484;-49
2023/01/12 04:59:57;;;;;;;7.28;1.70;;;6.20;99.90;;;5.44;100.00;97447.97;5035578;28;20039;-46
2023/01/12 05:02:23;;;;;;;7.47;1.50;;;6.20;99.90;;;5.46;100.00;97438.34;5039465;28;20040;-50
2023/01/12 05:04:49;;;;;;;6.70;1.48;;;6.20;99.90;;;5.52;100.00;97437.38;5035168;28;20559;-48
2023/01/12 05:07:15;;;;;;;8.00;1.30;;;6.20;99.90;;;5.54;100.00;97435.59;5038275;28;20037;-49
2023/01/12 05:12:26;;;;;;;10.63;1.58;;;6.20;99.90;;;5.53;100.00;97429.50;5042060;28;20039;-48
2023/01/12 05:14:51;;;;;;;4.22;1.17;;;6.30;99.90;;;5.52;100.00;97440.84;5035038;28;20043;-49
2023/01/12 05:17:17;;;;;;;9.90;1.77;;;6.20;99.90;;;5.58;100.00;97450.38;5036344;28;21247;-47
2023/01/12 05:19:43;;;;;;;9.25;1.63;;;6.30;99.90;;;5.58;100.00;97452.09;5030540;28;20028;-46
2023/01/12 05:22:08;;;;;;;8.80;1.40;;;6.30;99.90;;;5.62;100.00;97449.44;5039175;28;20033;-46
2023/01/12 05:24:34;;;;;;;8.30;1.52;;;6.30;99.90;;;5.64;100.00;97442.41;5035770;28;20257;-46
2023/01/12 05:27:00;;;;;;;8.70;2.08;;;6.40;99.90;;;5.76;100.00;97443.97;5041532;28;20031;-49
2023/01/12 05:29:27;;;;;;;6.90;1.40;;;6.40;99.90;;;5.78;100.00;97434.34;5035974;28;20032;-48
2023/01/12 05:31:53;;;;;;;9.32;2.13;;;6.50;99.90;;;5.84;100.00;97431.59;5035245;28;22204;-50
2023/01/12 05:34:19;;;;;;;6.57;1.83;;;6.50;99.90;;;5.90;100.00;97434.13;5040865;28;20063;-50
2023/01/12 05:36:46;;;;;;;9.13;1.15;;;6.60;99.90;;;5.91;100.00;97427.97;5029704;28;20032;-45
2023/01/12 05:39:11;;;;;;;5.70;1.40;;;6.60;99.90;;;6.01;100.00;97435.69;5032708;28;20824;-47
2023/01/12 05:43:48;;;;;;;9.77;1.48;;;6.60;99.90;;;5.99;100.00;97427.00;5038277;28;20033;-49
2023/01/12 05:44:23;;;;;;;5.93;1.55;;;6.70;99.90;;;5.93;100.00;97420.97;5035343;28;20036;-48
2023/01/12 05:46:49;;;;;;;6.15;1.60;;;6.70;99.90;;;5.96;100.00;97430.56;5035564;28;20068;-49
2023/01/12 05:49:14;;;;;;;8.85;1.70;;;6.70;99.90;;;5.97;100.00;97429.66;5041091;28;20029;-46
2023/01/12 05:51:40;;;;;;;8.82;1.50;;;6.70;99.90;;;6.01;100.00;97430.47;5044606;28;20102;-50
2023/01/12 05:54:06;;;;;;;9.43;1.95;;;6.70;99.90;;;6.01;100.00;97430.47;5039604;28;20167;-48
2023/01/12 05:56:32;;;;;;;11.13;1.95;;;6.70;99.90;;;6.03;100.00;97434.78;5041884;28;20442;-49
2023/01/12 05:59:00;;;;;;;6.72;1.48;;;6.70;99.90;;;6.04;100.00;97431.28;5039367;28;20464;-45
2023/01/12 06:01:27;;;;;;;11.38;1.85;;;6.70;99.90;;;5.98;100.00;97433.16;5043356;28;20040;-46
2023/01/12 06:03:58;;;;;;;7.45;1.80;;;6.60;99.90;;;5.84;100.00;97426.38;5039841;28;20032;-50
2023/01/12 06:06:27;;;;;;;7.25;1.50;;;6.60;99.90;;;5.82;100.00;97416.81;5034760;28;20127;-49
2023/01/12 06:08:53;;;;;;;5.07;1.52;;;6.50;99.90;;;5.69;100.00;97424.03;5044874;28;20029;-47
2023/01/12 06:14:06;;;;;;;8.07;1.52;;;6.30;99.90;;;5.62;100.00;97419.78;5034377;28;20558;-50
2023/01/12 06:16:32;;;;;;;5.70;1.48;;;6.30;99.90;;;5.54;100.00;97412.94;5042380;28;20048;-50
2023/01/12 06:18:57;;;;;;;5.72;1.80;;;6.30;99.90;;;5.51;100.00;97407.75;5049154;28;20132;-50
2023/01/12 06:21:24;;;;;;;8.52;2.00;;;6.20;99.90;;;5.64;100.00;97397.06;5047679;28;20040;-48
2023/01/12 06:23:50;;;;;;;8.90;1.67;;;6.30;99.90;;;5.66;100.00;97396.16;5043558;28;20690;-50
2023/01/12 06:26:16;;;;;;;9.30;1.92;;;6.40;99.90;;;5.76;100.00;97395.97;5047641;28;20370;-50
2023/01/12 06:28:42;;;;;;;9.88;1.92;;;6.40;99.90;;;5.78;100.00;97389.84;5049511;28;20035;-46
2023/01/12 06:31:10;;;;;;;11.63;1.50;;;6.40;99.90;;;5.78;100.00;97376.75;5039602;28;20060;-48
2023/01/12 06:33:36;;;;;;;9.05;1.50;;;6.50;99.90;;;5.82;100.00;97390.66;5044815;28;20090;-50
2023/01/12 06:36:03;;;;;;;5.35;1.35;;;6.50;99.90;;;5.89;100.00;97385.28;5048501;28;20481;-47
2023/01/12 06:38:31;;;;;;;6.53;1.38;;;6.50;99.90;;;5.83;100.00;97364.47;5046370;28;20060;-49
2023/01/12 06:43:54;;;;;;;6.22;1.55;;;6.60;99.90;;;5.90;100.00;97376.53;5027584;28;20048;-47
2023/01/12 06:46:20;;;;;;;7.38;1.45;;;6.60;99.90;;;5.89;100.00;97366.09;5045631;28;20048;-49
2023/01/12 06:48:45;;;;;;;8.45;1.60;;;6.60;99.90;;;5.90;100.00;97380.91;5043924;28;20041;-48
2023/01/12 06:51:11;;;;;;;8.38;1.30;;;6.60;99.90;;;5.89;100.00;97393.13;5040876;28;20043;-49
2023/01/12 06:53:37;;;;;;;8.52;1.30;;;6.60;99.90;;;5.90;100.00;97393.97;5045079;28;20416;-50
2023/01/12 06:56:03;;;;;;;7.53;1.38;;;6.60;99.90;;;5.91;100.00;97406.19;5044711;28;20028;-50
2023/01/12 06:58:28;;;;;;;6.38;1.40;;;6.60;99.90;;;5.92;100.00;97403.56;5044866;28;20068;-47
2023/01/12 07:01:01;;;;;;;9.43;1.65;;;6.60;99.90;;;5.98;100.00;97397.38;5041578;28;20041;-49
2023/01/12 07:03:26;;;;;;;;;;;6.70;99.90;;;6.04;100.00;97389.38;5042775;28;20052;-49
2023/01/12 07:05:52;;;;;;;7.40;1.63;;;6.70;99.90;;;6.07;100.00;97378.00;5036347;28;20141;-50
2023/01/12 07:08:18;;;;;;;5.13;1.35;;;6.70;99.90;;;6.09;100.00;97379.69;5047463;28;20216;-50
2023/01/12 07:10:45;;;;;;;5.97;1.25;;;6.80;99.90;;;6.07;100.00;97363.16;5044166;28;20029;-48
2023/01/12 07:13:11;;;;;;;11.93;1.73;;;6.80;99.90;;;6.15;100.00;97368.22;5042124;28;20040;-50
2023/01/12 07:15:37;;;;;;;6.25;1.58;;;6.80;99.90;;;6.20;100.00;97371.63;5041508;28;20052;-47
2023/01/12 07:18:02;;;;;;;6.80;1.90;;;6.90;99.90;;;6.20;100.00;97361.16;5044686;28;20025;-51
2023/01/12 07:20:28;;;;;;;8.68;2.03;;;6.90;99.90;;;6.04;100.00;97326.53;5047613;28;20756;-50
2023/01/12 07:22:54;;;;;;;6.63;1.80;;;6.90;99.90;;;6.25;100.00;97367.16;5040189;28;20636;-50
2023/01/12 07:25:20;;;;;;;6.90;1.60;;;6.90;99.90;;;6.31;100.00;97374.88;5037612;28;20115;-50
2023/01/12 07:27:51;;;;;;;9.00;1.40;;;7.00;99.90;;;6.35;100.00;97388.78;5040960;28;20036;-50
2023/01/12 07:30:20;;;;;;;6.78;1.20;;;7.00;99.90;;;6.43;100.00;97384.25;5043842;28;20524;-49
2023/01/12 07:32:45;;;;;;;7.70;1.48;;;7.10;99.90;;;6.48;100.00;97397.28;5040728;28;20040;-47
2023/01/12 07:35:11;;;;;;;5.50;1.17;;;7.20;99.90;;;6.49;100.00;97391.97;5042030;28;20056;-50
2023/01/12 07:37:37;;;;;;;9.85;1.63;;;7.20;99.90;;;6.53;100.00;97389.28;5045303;28;20151;-51
2023/01/12 07:40:03;;;;;;;6.95;1.52;;;7.20;99.90;;;6.52;100.00;97382.34;5045575;28;20025;-50
2023/01/12 07:42:29;;;;;;;5.57;1.38;;;7.20;99.90;;;6.54;100.00;97391.88;5043971;28;20043;-50
2023/01/12 07:44:54;;;;;;;9.70;1.60;;;7.20;99.90;;;6.59;100.00;97389.19;5042826;28;20037;-49
2023/01/12 07:47:20;;;;;;;8.15;1.50;;;7.30;99.90;;;6.62;100.00;97392.59;5047793;28;20496;-49
2023/01/12 07:49:46;;;;;;;5.35;1.05;;;7.30;99.90;;;6.68;100.00;97391.59;5045878;28;20025;-49
2023/01/12 07:52:13;;;;;;;5.57;1.38;;;7.40;99.90;;;6.75;100.00;97397.56;5041979;28;20029;-50
2023/01/12 07:54:39;;;;;;;7.00;1.60;;;7.40;99.90;;;6.74;100.00;97390.59;5042119;28;20067;-45
2023/01/12 07:57:09;;;;;;;5.13;1.25;;;7.50;99.90;;;6.82;100.00;97384.31;5041503;28;20025;-50
2023/01/12 07:59:35;;;;;;;5.45;1.27;;;7.50;99.90;;;6.86;100.00;97385.09;5044492;28;20320;-48
2023/01/12 08:02:01;;;;;;;5.40;1.42;;;7.50;99.90;;;6.85;100.00;97383.34;5047159;28;20078;-50
2023/01/12 08:04:26;;;;;;;8.38;1.70;;;7.50;99.90;;;6.90;100.00;97375.41;5040635;28;20511;-49
2023/01/12 08:06:52;;;;;;;7.55;1.60;;;7.60;99.90;;;6.93;100.00;97377.94;5049381;28;20446;-50
2023/01/12 08:09:18;;;;;;;2.78;0.88;;;7.60;99.90;;;6.94;100.00;97382.28;5040484;28;20103;-47
2023/01/12 08:11:44;;;;;;;9.13;1.50;;;7.70;99.90;;;6.94;100.00;97384.91;5048618;28;20041;-50
2023/01/12 08:14:23;;;;;;;4.68;1.30;;;7.70;99.90;;;7.01;100.00;97382.09;5047609;28;20443;-50
2023/01/12 08:16:50;;;;;;;7.13;1.35;;;7.60;99.90;;;7.01;100.00;97384.72;5043209;28;20094;-50
2023/01/12 08:19:24;;;;;;;7.32;1.52;;;7.70;99.90;;;7.04;100.00;97387.28;5043117;28;20717;-46
2023/01/12 08:21:57;;;;;;;4.72;1.40;;;7.70;99.90;;;7.06;100.00;97385.50;5050987;28;20163;-48
2023/01/12 08:24:28;;;;;;;7.45;1.63;;;7.80;99.90;;;7.06;100.00;97393.34;5042627;28;20507;-47
2023/01/12 08:26:58;;;;;;;5.00;1.42;;;7.70;99.90;;;7.05;100.00;97381.16;5043483;28;20575;-50
2023/01/12 08:29:30;;;;;;;3.70;1.08;;;7.70;99.90;;;7.05;100.00;97382.91;5046692;28;20790;-50
2023/01/12 08:32:03;;;;;;;6.13;1.90;;;7.70;99.90;;;7.02;100.00;97381.22;5041467;28;20028;-46
2023/01/12 08:34:30;;;;;;;6.80;1.60;;;7.70;99.90;;;7.03;100.00;97392.56;5042953;28;20052;-46
2023/01/12 08:37:00;;;;;;;7.25;1.63;;;7.70;99.90;;;7.01;100.00;97394.38;5039122;28;20071;-49
2023/01/12 08:39:28;;;;;;;7.95;1.25;;;7.70;99.90;;;6.98;100.00;97386.56;5040953;23;20111;-38
2023/01/12 08:41:54;;;;;;;6.38;1.38;;;7.70;99.90;;;7.03;100.00;97390.84;5010830;28;20045;-38
2023/01/12 08:44:20;;;;;;;4.65;1.40;;;7.70;99.90;;;7.03;100.00;97393.44;5005624;28;20112;-38
2023/01/12 08:46:49;;;;;;;8.40;1.45;;;7.70;99.90;;;7.04;100.00;97384.66;5011404;28;20530;-38
2023/01/12 08:49:17;;;;;;;4.93;1.27;;;7.80;99.90;;;7.10;100.00;97383.66;5010688;28;20040;-38
2023/01/12 08:51:43;;;;;;;7.70;1.13;;;7.80;99.90;;;7.14;100.00;97387.06;5009071;28;20049;-38
2023/01/12 08:54:11;;;;;;;5.45;1.70;;;7.80;99.90;;;7.18;100.00;97381.72;5010013;28;20567;-38
2023/01/12 08:56:36;;;;;;;5.32;1.23;;;7.90;99.90;;;7.23;100.00;97390.34;5008444;28;20285;-38
2023/01/12 08:59:03;;;;;;;4.93;1.15;;;7.90;99.90;;;7.25;100.00;97387.72;5004212;28;20426;-38
2023/01/12 09:01:29;;;;;;;5.50;1.10;;;7.90;99.90;;;7.30;100.00;97396.28;5004001;28;20034;-38
2023/01/12 09:03:56;;;;;;;9.82;1.30;;;8.00;99.90;;;7.23;100.00;97384.22;5010924;28;20028;-38
2023/01/12 09:06:28;;;;;;;6.18;1.30;;;8.00;99.90;;;7.32;100.00;97393.66;5007593;28;20384;-38
2023/01/12 09:08:57;;;;;;;5.00;1.70;;;8.00;99.90;;;7.35;100.00;97396.19;5012211;28;20392;-38
2023/01/12 09:11:24;;;;;;;4.75;1.35;;;8.00;99.90;;;7.35;100.00;97399.69;5014535;28;20037;-38
2023/01/12 09:13:50;;;;;;;4.60;1.30;;;8.00;99.90;;;7.37;100.00;97390.00;5007228;28;20033;-38
2023/01/12 09:16:18;;;;;;;8.52;1.15;;;8.10;99.90;;;7.39;100.00;97392.59;5013893;28;20128;-38
2023/01/12 09:18:45;;;;;;;6.70;1.08;;;8.10;99.90;;;7.42;100.00;97398.63;5003164;28;20589;-38
2023/01/12 09:21:15;;;;;;;4.22;1.48;;;8.10;99.90;;;7.41;100.00;97399.56;5001503;28;20391;-38
2023/01/12 09:23:41;;;;;;;6.85;1.20;;;8.10;99.90;;;7.45;100.00;97405.59;5013109;28;20065;-38
2023/01/12 09:26:13;;;;;;;7.65;1.20;;;8.10;99.90;;;7.51;100.00;97409.81;5010727;28;20030;-38
2023/01/12 09:28:40;;;;;;;6.30;1.42;;;8.10;99.90;;;7.53;100.00;97418.50;5021458;28;20029;-38
2023/01/12 09:31:09;;;;;;;7.88;1.55;;;8.20;99.90;;;7.54;100.00;97421.09;5011488;28;20037;-38
2023/01/12 09:33:37;;;;;;;5.88;0.98;;;8.20;99.90;;;7.59;100.00;97418.34;5015891;28;20470;-38
2023/01/12 09:36:06;;;;;;;7.03;1.10;;;8.30;99.90;;;7.59;100.00;97423.59;5006889;28;20033;-38
2023/01/12 09:38:35;;;;;;;5.95;1.38;;;8.30;99.90;;;7.67;100.00;97426.06;5013841;28;20029;-38
2023/01/12 09:46:57;;;;;;;6.82;1.67;;;8.30;99.90;;;7.70;100.00;97416.34;5010310;28;20025;-38
2023/01/12 09:47:00;;;;;;;5.30;1.38;;;8.40;99.90;;;7.76;100.00;97413.53;5008790;28;20083;-38
2023/01/12 09:49:38;;;;;;;9.95;1.45;;;8.50;99.90;;;7.88;100.00;97408.88;5015508;28;20038;-38
2023/01/12 09:52:26;;;;;;;6.95;1.27;;;8.50;99.90;;;7.97;100.00;97406.88;5008888;28;20113;-37
2023/01/12 09:54:52;;;;;;;6.50;1.27;;;8.60;99.90;;;8.05;100.00;97401.41;5005521;28;20067;-38
2023/01/12 09:58:17;;;;;;;4.78;1.00;;;8.70;99.90;;;8.16;100.00;97388.00;5002099;28;20029;-38
2023/01/12 10:00:42;;;;;;;6.28;1.48;;;8.80;99.90;;;8.20;100.00;97389.63;5007263;28;20421;-37
2023/01/12 10:03:30;;;;;;;3.13;0.90;;;8.90;99.90;;;8.27;100.00;97374.56;5012416;28;20297;-37
2023/01/12 10:05:59;;;;;;;6.38;1.35;;;9.00;99.90;;;8.35;100.00;97377.84;5013059;28;20034;-37
2023/01/12 10:08:47;;;;;;;5.13;1.20;;;9.00;99.90;;;8.45;100.00;97365.31;5015692;28;20313;-38
2023/01/12 10:11:46;;;;;;;8.50;1.40;;;9.10;99.90;;;8.50;100.00;97356.38;5013824;28;20047;-38
2023/01/12 10:14:32;;;;;;;7.80;1.13;;;9.20;99.90;;;8.62;100.00;97362.22;5012764;28;20415;-38
2023/01/12 10:17:24;;;;;;;7.15;2.00;;;9.30;99.90;;;8.65;100.00;97338.44;5010665;28;20048;-37
2023/01/12 10:20:16;;;;;;;13.15;1.58;;;9.30;99.90;;;8.77;100.00;97343.31;5013431;28;20045;-38
2023/01/12 10:22:52;;;;;;;5.38;1.23;;;9.40;99.90;;;8.77;100.00;97344.22;5029675;28;20124;-37
2023/01/12 10:25:40;;;;;;;5.20;1.13;;;9.40;99.90;;;8.88;100.00;97348.25;5006341;28;20048;-38
2023/01/12 10:28:17;;;;;;;6.00;1.17;;;9.50;99.90;;;8.83;100.00;97339.66;5011415;28;20037;-38
2023/01/12 10:30:44;;;;;;;5.22;1.80;;;9.50;99.90;;;8.83;100.00;97337.91;5014378;28;20883;-38
2023/01/12 10:33:19;;;;;;;4.57;1.08;;;9.50;99.90;;;8.88;100.00;97351.78;5004993;28;20025;-38
2023/01/12 10:35:51;;;;;;;3.60;1.10;;;9.60;99.90;;;8.96;100.00;97348.91;5007668;28;20033;-37
2023/01/12 10:38:33;;;;;;;5.30;1.00;;;9.60;99.90;;;9.04;100.00;97346.00;5013790;28;20034;-37
2023/01/12 10:41:18;;;;;;;3.22;1.10;;;9.70;99.90;;;9.05;100.00;97355.63;5012026;28;20033;-38
2023/01/12 10:44:12;;;;;;;2.80;0.93;;;9.70;99.90;;;9.06;100.00;97354.72;5010750;28;20033;-38
2023/01/12 10:46:38;;;;;;;8.32;1.38;;;9.70;99.90;;;8.98;100.00;97361.06;5015927;28;20117;-38
2023/01/12 10:49:22;;;;;;;5.45;1.10;;;9.70;99.90;;;8.91;100.00;97359.53;5012782;28;20504;-38
2023/01/12 10:51:57;;;;;;;4.85;1.10;;;9.60;99.90;;;8.70;100.00;97360.19;5014180;28;20029;-38
2023/01/12 10:54:32;;;;;;;2.60;1.10;;;9.50;99.90;;;8.76;100.00;97352.16;5011451;28;20060;-39
2023/01/12 10:57:04;;;;;;;5.50;1.05;;;9.50;99.90;;;8.82;100.00;97340.56;5007756;28;20619;-39
2023/01/12 10:59:37;;;;;;;4.85;0.90;;;9.50;99.90;;;8.86;100.00;97332.53;5012019;28;20029;-39
2023/01/12 11:02:07;;;;;;;5.35;1.30;;;9.50;99.90;;;8.92;100.00;97334.13;5015758;28;20034;-38
2023/01/12 11:04:53;;;;;;;9.07;1.38;;;9.60;99.90;;;8.94;100.00;97321.78;5013952;28;20041;-39
2023/01/12 11:07:35;;;;;;;4.95;0.73;;;9.70;99.90;;;9.02;100.00;97321.53;5012726;28;20022;-39
2023/01/12 11:10:39;;;;;;;2.67;0.88;;;9.70;99.90;;;9.01;100.00;97323.31;5013542;28;20025;-39